createdAt,value
2016-08-09T00:00:33.252Z,957.05
2016-08-09T00:01:33.278Z,957.03
2016-08-09T00:02:33.308Z,957.02
2016-08-09T00:03:33.338Z,957.05
2016-08-09T00:04:33.368Z,957.06
2016-08-09T00:05:33.446Z,957.1
2016-08-09T00:06:33.424Z,957.11
2016-08-09T00:07:33.453Z,957.07
2016-08-09T00:08:33.484Z,957.08
2016-08-09T00:09:33.512Z,957.08
2016-08-09T00:10:33.541Z,957.06
2016-08-09T00:11:33.570Z,957.05
2016-08-09T00:12:33.608Z,957.07
2016-08-09T00:13:33.627Z,957.05
2016-08-09T00:14:33.656Z,956.98
2016-08-09T00:15:33.686Z,956.96
2016-08-09T00:16:33.716Z,956.94
2016-08-09T00:17:33.742Z,956.94
2016-08-09T00:18:33.773Z,956.92
2016-08-09T00:19:33.802Z,956.9
2016-08-09T00:20:33.829Z,956.88
2016-08-09T00:21:33.859Z,956.91
2016-08-09T00:22:33.889Z,956.89
2016-08-09T00:23:33.916Z,956.94
2016-08-09T00:24:33.946Z,956.94
2016-08-09T00:25:33.974Z,956.97
2016-08-09T00:26:34.003Z,956.96
2016-08-09T00:27:34.031Z,956.97
2016-08-09T00:28:34.063Z,956.97
2016-08-09T00:29:34.092Z,956.98
2016-08-09T00:30:34.119Z,956.99
2016-08-09T00:31:34.149Z,957.03
2016-08-09T00:32:34.177Z,956.99
2016-08-09T00:33:34.207Z,956.98
2016-08-09T00:34:34.235Z,956.98
2016-08-09T00:35:34.264Z,957
2016-08-09T00:36:34.292Z,957
2016-08-09T00:37:34.321Z,956.95
2016-08-09T00:38:34.351Z,956.97
2016-08-09T00:39:34.379Z,957
2016-08-09T00:40:34.408Z,957.01
2016-08-09T00:41:34.438Z,956.98
2016-08-09T00:42:34.467Z,956.97
2016-08-09T00:43:34.503Z,956.94
2016-08-09T00:44:34.523Z,956.93
2016-08-09T00:45:34.573Z,956.98
2016-08-09T00:46:34.580Z,956.97
2016-08-09T00:47:34.615Z,956.93
2016-08-09T00:48:34.644Z,956.92
2016-08-09T00:49:34.669Z,956.92
2016-08-09T00:50:34.697Z,956.94
2016-08-09T00:51:34.909Z,956.85
2016-08-09T00:52:34.754Z,956.84
2016-08-09T00:53:34.787Z,956.82
2016-08-09T00:54:34.813Z,956.79
2016-08-09T00:55:34.841Z,956.77
2016-08-09T00:56:34.868Z,956.72
2016-08-09T00:57:34.899Z,956.72
2016-08-09T00:58:34.927Z,956.73
2016-08-09T00:59:34.957Z,956.66
2016-08-09T01:00:34.983Z,956.62
2016-08-09T01:01:35.019Z,956.62
2016-08-09T01:02:35.098Z,956.66
2016-08-09T01:03:35.071Z,956.66
2016-08-09T01:04:35.099Z,956.66
2016-08-09T01:05:35.179Z,956.66
2016-08-09T01:06:35.158Z,956.67
2016-08-09T01:07:35.187Z,956.7
2016-08-09T01:08:35.214Z,956.75
2016-08-09T01:09:35.244Z,956.76
2016-08-09T01:10:35.272Z,956.76
2016-08-09T01:11:35.302Z,956.78
2016-08-09T01:12:35.330Z,956.78
2016-08-09T01:13:35.360Z,956.81
2016-08-09T01:14:35.389Z,956.79
2016-08-09T01:15:35.415Z,956.83
2016-08-09T01:16:35.444Z,956.79
2016-08-09T01:17:35.498Z,956.81
2016-08-09T01:18:35.501Z,956.81
2016-08-09T01:19:35.531Z,956.81
2016-08-09T01:20:35.561Z,956.76
2016-08-09T01:21:35.600Z,956.78
2016-08-09T01:22:35.618Z,956.8
2016-08-09T01:23:35.646Z,956.8
2016-08-09T01:24:35.674Z,956.82
2016-08-09T01:25:35.713Z,956.81
2016-08-09T01:26:35.732Z,956.77
2016-08-09T01:27:35.762Z,956.74
2016-08-09T01:28:35.792Z,956.74
2016-08-09T01:29:35.818Z,956.74
2016-08-09T01:30:35.848Z,956.77
2016-08-09T01:31:35.876Z,956.74
2016-08-09T01:32:35.905Z,956.74
2016-08-09T01:33:35.935Z,956.77
2016-08-09T01:34:35.963Z,956.76
2016-08-09T01:35:35.991Z,956.7
2016-08-09T01:36:36.019Z,956.73
2016-08-09T01:37:36.051Z,956.75
2016-08-09T01:38:36.078Z,956.74
2016-08-09T01:39:36.107Z,956.68
2016-08-09T01:40:36.136Z,956.69
2016-08-09T01:41:36.164Z,956.65
2016-08-09T01:42:36.194Z,956.67
2016-08-09T01:43:36.221Z,956.68
2016-08-09T01:44:36.249Z,956.67
2016-08-09T01:45:36.280Z,956.67
2016-08-09T01:46:36.307Z,956.7
2016-08-09T01:47:36.335Z,956.62
2016-08-09T01:48:36.365Z,956.65
2016-08-09T01:49:36.394Z,956.61
2016-08-09T01:50:36.422Z,956.63
2016-08-09T01:51:36.449Z,956.6
2016-08-09T01:52:36.478Z,956.63
2016-08-09T01:53:36.508Z,956.56
2016-08-09T01:54:36.536Z,956.52
2016-08-09T01:55:36.565Z,956.49
2016-08-09T01:56:36.594Z,956.47
2016-08-09T01:57:36.622Z,956.42
2016-08-09T01:58:36.651Z,956.4
2016-08-09T01:59:36.678Z,956.4
2016-08-09T02:00:36.707Z,956.41
2016-08-09T02:01:36.736Z,956.37
2016-08-09T02:02:36.765Z,956.31
2016-08-09T02:03:36.792Z,956.27
2016-08-09T02:04:36.822Z,956.22
2016-08-09T02:05:36.900Z,956.24
2016-08-09T02:06:36.892Z,956.2
2016-08-09T02:07:36.907Z,956.23
2016-08-09T02:08:36.937Z,956.2
2016-08-09T02:09:36.964Z,956.19
2016-08-09T02:10:36.993Z,956.18
2016-08-09T02:11:37.028Z,956.25
2016-08-09T02:12:37.050Z,956.25
2016-08-09T02:13:37.078Z,956.25
2016-08-09T02:14:37.108Z,956.23
2016-08-09T02:15:37.135Z,956.24
2016-08-09T02:16:37.165Z,956.24
2016-08-09T02:17:37.192Z,956.19
2016-08-09T02:18:37.221Z,956.16
2016-08-09T02:19:37.248Z,956.14
2016-08-09T02:20:37.278Z,956.17
2016-08-09T02:21:37.307Z,956.18
2016-08-09T02:22:37.341Z,956.21
2016-08-09T02:23:37.364Z,956.2
2016-08-09T02:24:37.391Z,956.21
2016-08-09T02:25:37.420Z,956.26
2016-08-09T02:26:37.447Z,956.25
2016-08-09T02:27:37.477Z,956.26
2016-08-09T02:28:37.505Z,956.27
2016-08-09T02:29:37.533Z,956.26
2016-08-09T02:30:37.561Z,956.24
2016-08-09T02:31:37.592Z,956.23
2016-08-09T02:32:37.618Z,956.24
2016-08-09T02:33:37.648Z,956.23
2016-08-09T02:34:37.675Z,956.24
2016-08-09T02:35:37.705Z,956.21
2016-08-09T02:36:37.733Z,956.24
2016-08-09T02:37:37.763Z,956.23
2016-08-09T02:38:37.789Z,956.2
2016-08-09T02:39:37.817Z,956.21
2016-08-09T02:40:37.845Z,956.18
2016-08-09T02:41:37.875Z,956.24
2016-08-09T02:42:37.903Z,956.27
2016-08-09T02:43:37.932Z,956.26
2016-08-09T02:44:37.959Z,956.27
2016-08-09T02:45:37.989Z,956.28
2016-08-09T02:46:38.036Z,956.29
2016-08-09T02:47:38.044Z,956.3
2016-08-09T02:49:38.102Z,956.32
2016-08-09T02:50:38.128Z,956.32
2016-08-09T02:51:38.158Z,956.36
2016-08-09T02:52:38.186Z,956.36
2016-08-09T02:53:38.213Z,956.35
2016-08-09T02:54:38.253Z,956.39
2016-08-09T02:55:38.272Z,956.38
2016-08-09T02:56:38.300Z,956.39
2016-08-09T02:57:38.327Z,956.42
2016-08-09T02:58:38.355Z,956.39
2016-08-09T02:59:38.385Z,956.41
2016-08-09T03:00:38.413Z,956.41
2016-08-09T03:01:38.441Z,956.38
2016-08-09T03:02:38.471Z,956.43
2016-08-09T03:03:38.505Z,956.44
2016-08-09T03:04:38.525Z,956.47
2016-08-09T03:05:38.554Z,956.46
2016-08-09T03:06:38.582Z,956.5
2016-08-09T03:07:38.612Z,956.49
2016-08-09T03:08:38.637Z,956.5
2016-08-09T03:09:38.666Z,956.5
2016-08-09T03:10:38.701Z,956.52
2016-08-09T03:11:38.723Z,956.52
2016-08-09T03:12:38.752Z,956.49
2016-08-09T03:13:38.781Z,956.47
2016-08-09T03:14:38.812Z,956.43
2016-08-09T03:15:38.837Z,956.45
2016-08-09T03:16:38.866Z,956.42
2016-08-09T03:17:38.895Z,956.41
2016-08-09T03:18:38.921Z,956.4
2016-08-09T03:19:38.954Z,956.41
2016-08-09T03:20:38.978Z,956.44
2016-08-09T03:21:39.006Z,956.46
2016-08-09T03:22:39.033Z,956.48
2016-08-09T03:23:39.063Z,956.48
2016-08-09T03:24:39.090Z,956.49
2016-08-09T03:25:39.118Z,956.54
2016-08-09T03:26:39.147Z,956.58
2016-08-09T03:27:39.176Z,956.61
2016-08-09T03:28:39.203Z,956.62
2016-08-09T03:29:39.230Z,956.58
2016-08-09T03:30:39.258Z,956.6
2016-08-09T03:31:39.288Z,956.57
2016-08-09T03:32:39.316Z,956.59
2016-08-09T03:33:39.342Z,956.55
2016-08-09T03:34:39.371Z,956.51
2016-08-09T03:35:39.401Z,956.57
2016-08-09T03:36:39.427Z,956.57
2016-08-09T03:37:39.455Z,956.54
2016-08-09T03:38:39.483Z,956.54
2016-08-09T03:39:39.512Z,956.48
2016-08-09T03:40:39.541Z,956.46
2016-08-09T03:41:39.566Z,956.43
2016-08-09T03:42:39.596Z,956.43
2016-08-09T03:43:39.647Z,956.48
2016-08-09T03:44:39.651Z,956.46
2016-08-09T03:45:39.679Z,956.51
2016-08-09T03:46:39.707Z,956.55
2016-08-09T03:48:39.763Z,956.61
2016-08-09T03:49:39.791Z,956.64
2016-08-09T03:50:39.821Z,956.72
2016-08-09T03:51:39.864Z,956.87
2016-08-09T03:52:39.876Z,956.98
2016-08-09T03:53:39.904Z,957.12
2016-08-09T03:54:39.932Z,957.23
2016-08-09T03:55:39.960Z,957.33
2016-08-09T03:56:39.987Z,957.34
2016-08-09T03:57:40.016Z,957.24
2016-08-09T03:58:40.044Z,957.15
2016-08-09T03:59:40.080Z,957.08
2016-08-09T04:00:40.103Z,957.04
2016-08-09T04:01:40.126Z,957.1
2016-08-09T04:02:40.156Z,957.02
2016-08-09T04:03:40.181Z,956.91
2016-08-09T04:04:40.210Z,956.94
2016-08-09T04:05:40.237Z,956.95
2016-08-09T04:06:40.266Z,956.96
2016-08-09T04:07:40.297Z,956.95
2016-08-09T04:08:40.322Z,956.92
2016-08-09T04:09:40.348Z,956.96
2016-08-09T04:10:40.375Z,956.95
2016-08-09T04:11:40.403Z,956.96
2016-08-09T04:12:40.431Z,956.89
2016-08-09T04:13:40.457Z,956.93
2016-08-09T04:14:40.555Z,956.86
2016-08-09T04:15:40.515Z,956.77
2016-08-09T04:16:40.540Z,956.74
2016-08-09T04:18:40.596Z,956.72
2016-08-09T04:19:40.621Z,956.71
2016-08-09T04:20:40.650Z,956.68
2016-08-09T04:21:40.675Z,956.65
2016-08-09T04:22:40.702Z,956.65
2016-08-09T04:23:40.732Z,956.59
2016-08-09T04:24:40.757Z,956.56
2016-08-09T04:25:40.783Z,956.53
2016-08-09T04:26:40.810Z,956.45
2016-08-09T04:27:40.838Z,956.41
2016-08-09T04:28:40.865Z,956.35
2016-08-09T04:29:40.890Z,956.17
2016-08-09T04:30:40.919Z,956.09
2016-08-09T04:31:40.949Z,955.99
2016-08-09T04:33:40.998Z,955.93
2016-08-09T04:34:41.024Z,955.9
2016-08-09T04:35:41.052Z,955.87
2016-08-09T04:36:41.080Z,955.92
2016-08-09T04:37:41.105Z,955.97
2016-08-09T04:38:41.132Z,956.09
2016-08-09T04:39:41.166Z,956.26
2016-08-09T04:40:41.185Z,956.35
2016-08-09T04:41:41.214Z,956.35
2016-08-09T04:42:41.240Z,956.3
2016-08-09T04:43:41.266Z,956.28
2016-08-09T04:44:41.292Z,956.25
2016-08-09T04:45:41.321Z,956.26
2016-08-09T04:46:41.346Z,956.34
2016-08-09T04:48:41.404Z,956.36
2016-08-09T04:49:41.428Z,956.26
2016-08-09T04:50:41.454Z,956.28
2016-08-09T04:51:41.480Z,956.21
2016-08-09T04:52:41.509Z,956.24
2016-08-09T04:53:41.540Z,956.27
2016-08-09T04:54:41.561Z,956.34
2016-08-09T04:55:41.600Z,956.35
2016-08-09T04:56:41.613Z,956.4
2016-08-09T04:57:41.639Z,956.45
2016-08-09T04:58:41.666Z,956.42
2016-08-09T04:59:41.693Z,956.46
2016-08-09T05:00:41.719Z,956.47
2016-08-09T05:01:41.744Z,956.5
2016-08-09T05:02:41.772Z,956.54
2016-08-09T05:03:41.819Z,956.52
2016-08-09T05:04:41.823Z,956.49
2016-08-09T05:05:41.849Z,956.49
2016-08-09T05:06:41.876Z,956.5
2016-08-09T05:07:41.902Z,956.47
2016-08-09T05:08:41.927Z,956.41
2016-08-09T05:09:41.955Z,956.37
2016-08-09T05:10:41.981Z,956.36
2016-08-09T05:11:42.008Z,956.38
2016-08-09T05:12:42.032Z,956.41
2016-08-09T05:13:42.059Z,956.41
2016-08-09T05:14:42.086Z,956.41
2016-08-09T05:15:42.110Z,956.49
2016-08-09T05:16:42.137Z,956.51
2016-08-09T05:17:42.162Z,956.51
2016-08-09T05:18:42.188Z,956.52
2016-08-09T05:19:42.215Z,956.52
2016-08-09T05:20:42.241Z,956.48
2016-08-09T05:21:42.266Z,956.47
2016-08-09T05:22:42.292Z,956.45
2016-08-09T05:23:42.318Z,956.5
2016-08-09T05:24:42.344Z,956.54
2016-08-09T05:25:42.371Z,956.56
2016-08-09T05:26:42.397Z,956.62
2016-08-09T05:27:42.425Z,956.69
2016-08-09T05:28:42.448Z,956.72
2016-08-09T05:29:42.476Z,956.78
2016-08-09T05:30:42.507Z,956.83
2016-08-09T05:31:42.527Z,956.84
2016-08-09T05:32:42.552Z,956.84
2016-08-09T05:33:42.578Z,956.87
2016-08-09T05:34:42.605Z,956.9
2016-08-09T05:35:42.630Z,956.93
2016-08-09T05:36:42.656Z,956.95
2016-08-09T05:37:42.681Z,957.01
2016-08-09T05:38:42.707Z,957.04
2016-08-09T05:39:42.733Z,957.09
2016-08-09T05:40:42.759Z,957.09
2016-08-09T05:41:42.784Z,957.14
2016-08-09T05:42:42.810Z,957.16
2016-08-09T05:43:42.837Z,957.14
2016-08-09T05:44:42.862Z,957.17
2016-08-09T05:45:42.887Z,957.17
2016-08-09T05:46:42.914Z,957.11
2016-08-09T05:47:42.940Z,957.04
2016-08-09T05:48:42.967Z,957.02
2016-08-09T05:49:42.990Z,956.95
2016-08-09T05:50:43.024Z,956.9
2016-08-09T05:51:43.049Z,956.81
2016-08-09T05:52:43.069Z,956.83
2016-08-09T05:53:43.094Z,956.85
2016-08-09T05:54:43.121Z,956.91
2016-08-09T05:55:43.145Z,956.81
2016-08-09T05:56:43.172Z,956.71
2016-08-09T05:57:43.198Z,956.71
2016-08-09T05:58:43.242Z,956.8
2016-08-09T05:59:43.251Z,956.83
2016-08-09T06:00:43.276Z,956.9
2016-08-09T06:01:43.302Z,956.97
2016-08-09T06:02:43.327Z,956.94
2016-08-09T06:03:43.358Z,956.98
2016-08-09T06:04:43.379Z,956.96
2016-08-09T06:05:43.405Z,956.94
2016-08-09T06:06:43.453Z,956.95
2016-08-09T06:07:43.456Z,956.99
2016-08-09T06:08:43.483Z,957.02
2016-08-09T06:09:43.508Z,957.04
2016-08-09T06:10:43.534Z,957.15
2016-08-09T06:11:43.567Z,957.14
2016-08-09T06:12:43.586Z,957.15
2016-08-09T06:13:43.612Z,957.18
2016-08-09T06:14:43.637Z,957.17
2016-08-09T06:15:43.664Z,957.17
2016-08-09T06:16:43.690Z,957.21
2016-08-09T06:17:43.716Z,957.15
2016-08-09T06:18:43.740Z,957.16
2016-08-09T06:19:43.766Z,957.27
2016-08-09T06:20:43.793Z,957.32
2016-08-09T06:21:43.820Z,957.41
2016-08-09T06:22:43.848Z,957.45
2016-08-09T06:23:43.870Z,957.42
2016-08-09T06:24:43.897Z,957.41
2016-08-09T06:25:43.922Z,957.38
2016-08-09T06:26:43.980Z,957.32
2016-08-09T06:27:43.975Z,957.33
2016-08-09T06:28:44.000Z,957.29
2016-08-09T06:29:44.024Z,957.2
2016-08-09T06:30:44.050Z,957.2
2016-08-09T06:31:44.075Z,957.18
2016-08-09T06:32:44.101Z,957.22
2016-08-09T06:33:44.126Z,957.26
2016-08-09T06:34:44.152Z,957.25
2016-08-09T06:35:44.178Z,957.27
2016-08-09T06:36:44.207Z,957.29
2016-08-09T06:37:44.230Z,957.32
2016-08-09T06:38:44.269Z,957.28
2016-08-09T06:39:44.287Z,957.26
2016-08-09T06:40:44.307Z,957.23
2016-08-09T06:41:44.332Z,957.22
2016-08-09T06:42:44.357Z,957.18
2016-08-09T06:43:44.383Z,957.09
2016-08-09T06:44:44.408Z,957.1
2016-08-09T06:45:44.433Z,957.14
2016-08-09T06:46:44.461Z,957.14
2016-08-09T06:47:44.484Z,957.09
2016-08-09T06:48:44.512Z,956.97
2016-08-09T06:52:44.612Z,956.68
2016-08-09T06:53:44.639Z,956.64
2016-08-09T06:54:44.668Z,956.65
2016-08-09T06:55:44.689Z,956.64
2016-08-09T06:56:44.715Z,956.67
2016-08-09T06:57:44.742Z,956.68
2016-08-09T06:58:44.765Z,956.69
2016-08-09T06:59:44.791Z,956.68
2016-08-09T07:00:44.817Z,956.71
2016-08-09T07:01:44.843Z,956.69
2016-08-09T07:02:44.867Z,956.69
2016-08-09T07:03:44.892Z,956.71
2016-08-09T07:04:44.919Z,956.78
2016-08-09T07:05:44.943Z,956.87
2016-08-09T07:06:44.969Z,956.9
2016-08-09T07:07:44.996Z,957.01
2016-08-09T07:08:45.021Z,957.03
2016-08-09T07:09:45.045Z,957.07
2016-08-09T07:10:45.071Z,957.12
2016-08-09T07:13:45.147Z,957.09
2016-08-09T07:14:45.172Z,957.08
2016-08-09T07:15:45.198Z,957.02
2016-08-09T07:16:45.224Z,957.02
2016-08-09T07:17:45.257Z,957.01
2016-08-09T07:18:45.275Z,956.99
2016-08-09T07:19:45.300Z,957.02
2016-08-09T07:20:45.325Z,957.02
2016-08-09T07:21:45.351Z,957.02
2016-08-09T07:22:45.376Z,957.05
2016-08-09T07:23:45.404Z,957.04
2016-08-09T07:24:45.427Z,957.08
2016-08-09T07:25:45.476Z,957.04
2016-08-09T07:26:45.479Z,957.1
2016-08-09T07:27:45.503Z,957.12
2016-08-09T07:28:45.529Z,957.12
2016-08-09T07:29:45.555Z,957.18
2016-08-09T07:30:45.580Z,957.16
2016-08-09T07:31:45.607Z,957.21
2016-08-09T07:32:45.632Z,957.24
2016-08-09T07:33:45.657Z,957.23
2016-08-09T07:34:45.684Z,957.27
2016-08-09T07:35:45.707Z,957.27
2016-08-09T07:36:45.735Z,957.28
2016-08-09T07:37:45.759Z,957.27
2016-08-09T07:38:45.784Z,957.31
2016-08-09T07:39:45.811Z,957.32
2016-08-09T07:40:45.836Z,957.36
2016-08-09T07:41:45.863Z,957.38
2016-08-09T07:42:45.889Z,957.41
2016-08-09T07:43:45.914Z,957.4
2016-08-09T07:44:45.939Z,957.38
2016-08-09T07:45:45.967Z,957.37
2016-08-09T07:46:45.991Z,957.37
2016-08-09T07:47:46.018Z,957.37
2016-08-09T07:48:46.047Z,957.4
2016-08-09T07:49:46.069Z,957.4
2016-08-09T07:50:46.104Z,957.39
2016-08-09T07:51:46.121Z,957.42
2016-08-09T07:52:46.147Z,957.42
2016-08-09T07:53:46.172Z,957.42
2016-08-09T07:54:46.198Z,957.4
2016-08-09T07:55:46.234Z,957.33
2016-08-09T07:56:46.250Z,957.38
2016-08-09T07:57:46.284Z,957.38
2016-08-09T07:58:46.303Z,957.35
2016-08-09T07:59:46.330Z,957.3
2016-08-09T08:00:46.355Z,957.3
2016-08-09T08:01:46.382Z,957.27
2016-08-09T08:02:46.407Z,957.29
2016-08-09T08:03:46.434Z,957.35
2016-08-09T08:04:46.459Z,957.36
2016-08-09T08:05:46.502Z,957.36
2016-08-09T08:06:46.511Z,957.33
2016-08-09T08:07:46.536Z,957.34
2016-08-09T08:08:46.568Z,957.36
2016-08-09T08:09:46.590Z,957.38
2016-08-09T08:10:46.615Z,957.36
2016-08-09T08:11:46.641Z,957.37
2016-08-09T08:12:46.667Z,957.42
2016-08-09T08:13:46.694Z,957.36
2016-08-09T08:14:46.719Z,957.36
2016-08-09T08:15:46.746Z,957.38
2016-08-09T08:16:46.772Z,957.35
2016-08-09T08:17:46.798Z,957.38
2016-08-09T08:18:46.822Z,957.38
2016-08-09T08:19:46.849Z,957.36
2016-08-09T08:20:46.875Z,957.35
2016-08-09T08:21:47.090Z,957.34
2016-08-09T08:22:46.927Z,957.34
2016-08-09T08:23:46.955Z,957.29
2016-08-09T08:24:46.981Z,957.26
2016-08-09T08:25:47.007Z,957.24
2016-08-09T08:26:47.032Z,957.19
2016-08-09T08:27:47.058Z,957.12
2016-08-09T08:28:47.085Z,957.1
2016-08-09T08:29:47.111Z,957.07
2016-08-09T08:30:47.136Z,957.1
2016-08-09T08:31:47.162Z,957.1
2016-08-09T08:32:47.188Z,957.1
2016-08-09T08:33:47.215Z,957.08
2016-08-09T08:34:47.241Z,957.11
2016-08-09T08:35:47.267Z,957.11
2016-08-09T08:36:47.294Z,957.13
2016-08-09T08:37:47.319Z,957.11
2016-08-09T08:38:47.346Z,957.13
2016-08-09T08:39:47.371Z,957.14
2016-08-09T08:40:47.397Z,957.16
2016-08-09T08:41:47.424Z,957.18
2016-08-09T08:42:47.449Z,957.18
2016-08-09T08:43:47.475Z,957.21
2016-08-09T08:44:47.507Z,957.17
2016-08-09T08:45:47.533Z,957.18
2016-08-09T08:46:47.555Z,957.25
2016-08-09T08:47:47.581Z,957.29
2016-08-09T08:48:47.607Z,957.31
2016-08-09T08:49:47.633Z,957.31
2016-08-09T08:50:47.661Z,957.34
2016-08-09T08:51:47.685Z,957.37
2016-08-09T08:52:47.713Z,957.35
2016-08-09T08:53:47.740Z,957.34
2016-08-09T08:54:47.766Z,957.36
2016-08-09T08:55:47.790Z,957.34
2016-08-09T08:56:47.816Z,957.32
2016-08-09T08:57:47.842Z,957.34
2016-08-09T08:58:47.870Z,957.33
2016-08-09T08:59:47.895Z,957.35
2016-08-09T09:00:47.927Z,957.4
2016-08-09T09:01:47.948Z,957.38
2016-08-09T09:02:47.972Z,957.33
2016-08-09T09:04:48.027Z,957.3
2016-08-09T09:05:48.053Z,957.38
2016-08-09T09:06:48.080Z,957.34
2016-08-09T09:07:48.104Z,957.37
2016-08-09T09:08:48.142Z,957.34
2016-08-09T09:09:48.159Z,957.38
2016-08-09T09:10:48.184Z,957.42
2016-08-09T09:11:48.211Z,957.45
2016-08-09T09:12:48.237Z,957.44
2016-08-09T09:13:48.262Z,957.48
2016-08-09T09:14:48.291Z,957.52
2016-08-09T09:15:48.317Z,957.51
2016-08-09T09:16:48.360Z,957.43
2016-08-09T09:17:48.369Z,957.43
2016-08-09T09:19:48.421Z,957.44
2016-08-09T09:20:48.447Z,957.44
2016-08-09T09:21:48.473Z,957.46
2016-08-09T09:22:48.499Z,957.47
2016-08-09T09:23:48.526Z,957.49
2016-08-09T09:24:48.553Z,957.48
2016-08-09T09:25:48.578Z,957.51
2016-08-09T09:26:48.605Z,957.47
2016-08-09T09:27:48.631Z,957.47
2016-08-09T09:28:48.659Z,957.46
2016-08-09T09:29:48.685Z,957.45
2016-08-09T09:30:48.711Z,957.44
2016-08-09T09:31:48.738Z,957.45
2016-08-09T09:32:48.763Z,957.43
2016-08-09T09:33:48.789Z,957.45
2016-08-09T09:34:48.818Z,957.41
2016-08-09T09:35:48.841Z,957.44
2016-08-09T09:36:48.867Z,957.45
2016-08-09T09:37:48.894Z,957.44
2016-08-09T09:38:48.921Z,957.43
2016-08-09T09:39:48.946Z,957.45
2016-08-09T09:40:48.973Z,957.4
2016-08-09T09:41:49.003Z,957.41
2016-08-09T09:42:49.026Z,957.44
2016-08-09T09:43:49.051Z,957.45
2016-08-09T09:44:49.078Z,957.41
2016-08-09T09:45:49.105Z,957.45
2016-08-09T09:46:49.131Z,957.41
2016-08-09T09:47:49.157Z,957.42
2016-08-09T09:48:49.187Z,957.4
2016-08-09T09:49:49.209Z,957.46
2016-08-09T09:50:49.234Z,957.45
2016-08-09T09:51:49.263Z,957.48
2016-08-09T09:52:49.287Z,957.47
2016-08-09T09:53:49.313Z,957.53
2016-08-09T09:54:49.341Z,957.48
2016-08-09T09:55:49.365Z,957.51
2016-08-09T09:56:49.396Z,957.52
2016-08-09T09:57:49.418Z,957.54
2016-08-09T09:58:49.444Z,957.54
2016-08-09T09:59:49.471Z,957.53
2016-08-09T10:00:49.498Z,957.56
2016-08-09T10:01:49.523Z,957.54
2016-08-09T10:02:49.550Z,957.57
2016-08-09T10:03:49.575Z,957.55
2016-08-09T10:04:49.601Z,957.53
2016-08-09T10:05:49.627Z,957.54
2016-08-09T10:06:49.655Z,957.49
2016-08-09T10:07:49.680Z,957.47
2016-08-09T10:08:49.706Z,957.45
2016-08-09T10:09:49.731Z,957.46
2016-08-09T10:10:49.760Z,957.45
2016-08-09T10:11:49.784Z,957.44
2016-08-09T10:12:49.819Z,957.45
2016-08-09T10:13:49.837Z,957.45
2016-08-09T10:14:49.864Z,957.47
2016-08-09T10:15:49.889Z,957.46
2016-08-09T10:16:49.914Z,957.47
2016-08-09T10:17:49.941Z,957.51
2016-08-09T10:18:49.967Z,957.5
2016-08-09T10:19:49.993Z,957.48
2016-08-09T10:20:50.036Z,957.46
2016-08-09T10:21:50.045Z,957.47
2016-08-09T10:22:50.073Z,957.49
2016-08-09T10:23:50.096Z,957.48
2016-08-09T10:24:50.122Z,957.48
2016-08-09T10:25:50.150Z,957.5
2016-08-09T10:26:50.176Z,957.51
2016-08-09T10:27:50.201Z,957.49
2016-08-09T10:28:50.228Z,957.45
2016-08-09T10:29:50.254Z,957.48
2016-08-09T10:30:50.281Z,957.47
2016-08-09T10:31:50.307Z,957.44
2016-08-09T10:32:50.332Z,957.43
2016-08-09T10:33:50.359Z,957.39
2016-08-09T10:34:50.384Z,957.37
2016-08-09T10:35:50.410Z,957.34
2016-08-09T10:36:50.437Z,957.35
2016-08-09T10:37:50.461Z,957.32
2016-08-09T10:38:50.489Z,957.33
2016-08-09T10:39:50.516Z,957.28
2016-08-09T10:40:50.541Z,957.24
2016-08-09T10:41:50.568Z,957.24
2016-08-09T10:42:50.595Z,957.21
2016-08-09T10:43:50.619Z,957.16
2016-08-09T10:44:50.647Z,957.18
2016-08-09T10:45:50.672Z,957.19
2016-08-09T10:46:50.699Z,957.17
2016-08-09T10:47:50.725Z,957.19
2016-08-09T10:48:50.750Z,957.19
2016-08-09T10:49:50.777Z,957.22
2016-08-09T10:50:50.802Z,957.18
2016-08-09T10:51:50.830Z,957.15
2016-08-09T10:52:50.857Z,957.16
2016-08-09T10:53:50.882Z,957.2
2016-08-09T10:54:50.907Z,957.11
2016-08-09T10:55:50.937Z,957.07
2016-08-09T10:56:50.961Z,957.06
2016-08-09T10:57:50.987Z,957.03
2016-08-09T10:58:51.013Z,957.01
2016-08-09T10:59:51.038Z,957.03
2016-08-09T11:00:51.065Z,957.04
2016-08-09T11:01:51.091Z,957.05
2016-08-09T11:02:51.120Z,957.02
2016-08-09T11:03:51.143Z,957
2016-08-09T11:04:51.171Z,956.97
2016-08-09T11:05:51.197Z,956.95
2016-08-09T11:06:51.224Z,956.88
2016-08-09T11:07:51.251Z,956.88
2016-08-09T11:08:51.276Z,956.87
2016-08-09T11:09:51.305Z,956.85
2016-08-09T11:10:51.331Z,956.85
2016-08-09T11:11:51.355Z,956.86
2016-08-09T11:12:51.382Z,956.85
2016-08-09T11:13:51.408Z,956.86
2016-08-09T11:14:51.434Z,956.87
2016-08-09T11:15:51.460Z,956.91
2016-08-09T11:16:51.628Z,956.94
2016-08-09T11:17:51.523Z,956.95
2016-08-09T11:18:51.542Z,956.97
2016-08-09T11:19:51.569Z,956.96
2016-08-09T11:20:51.593Z,956.91
2016-08-09T11:21:51.618Z,956.91
2016-08-09T11:22:51.646Z,956.9
2016-08-09T11:23:51.680Z,956.93
2016-08-09T11:24:51.742Z,956.99
2016-08-09T11:25:51.724Z,956.97
2016-08-09T11:26:51.751Z,956.97
2016-08-09T11:27:51.779Z,956.97
2016-08-09T11:28:51.818Z,957.01
2016-08-09T11:29:51.830Z,957.05
2016-08-09T11:30:51.856Z,957.03
2016-08-09T11:31:51.894Z,957.04
2016-08-09T11:32:51.910Z,957.03
2016-08-09T11:33:51.937Z,957.06
2016-08-09T11:34:51.963Z,957.06
2016-08-09T11:35:51.990Z,957.06
2016-08-09T11:36:52.016Z,957
2016-08-09T11:37:52.043Z,957.04
2016-08-09T11:38:52.069Z,957.03
2016-08-09T11:39:52.113Z,957.02
2016-08-09T11:40:52.121Z,957.06
2016-08-09T11:41:52.148Z,957.06
2016-08-09T11:42:52.174Z,957.04
2016-08-09T11:43:52.201Z,957.04
2016-08-09T11:44:52.227Z,957.07
2016-08-09T11:45:52.256Z,957.04
2016-08-09T11:46:52.282Z,957.05
2016-08-09T11:47:52.329Z,957.12
2016-08-09T11:48:52.336Z,957.11
2016-08-09T11:49:52.361Z,957.18
2016-08-09T11:50:52.387Z,957.2
2016-08-09T11:51:52.415Z,957.23
2016-08-09T11:52:52.441Z,957.22
2016-08-09T11:53:52.468Z,957.24
2016-08-09T11:54:52.492Z,957.24
2016-08-09T11:55:52.521Z,957.26
2016-08-09T11:56:52.546Z,957.27
2016-08-09T11:57:52.574Z,957.27
2016-08-09T11:58:52.601Z,957.26
2016-08-09T11:59:52.627Z,957.26
2016-08-09T12:00:52.654Z,957.2
2016-08-09T12:01:52.679Z,957.24
2016-08-09T12:02:52.707Z,957.23
2016-08-09T12:03:52.735Z,957.19
2016-08-09T12:04:52.760Z,957.2
2016-08-09T12:05:52.787Z,957.15
2016-08-09T12:06:52.813Z,957.18
2016-08-09T12:07:52.840Z,957.18
2016-08-09T12:08:52.867Z,957.15
2016-08-09T12:09:52.894Z,957.15
2016-08-09T12:10:52.921Z,957.16
2016-08-09T12:11:52.949Z,957.18
2016-08-09T12:12:52.974Z,957.17
2016-08-09T12:13:53.001Z,957.18
2016-08-09T12:14:53.028Z,957.17
2016-08-09T12:15:53.055Z,957.16
2016-08-09T12:16:53.081Z,957.16
2016-08-09T12:17:53.107Z,957.14
2016-08-09T12:18:53.134Z,957.14
2016-08-09T12:19:53.162Z,957.11
2016-08-09T12:20:53.188Z,957.07
2016-08-09T12:21:53.215Z,957.06
2016-08-09T12:22:53.240Z,957.07
2016-08-09T12:23:53.280Z,957.08
2016-08-09T12:24:53.296Z,957.09
2016-08-09T12:25:53.321Z,957.02
2016-08-09T12:26:53.351Z,957.06
2016-08-09T12:27:53.374Z,957.02
2016-08-09T12:28:53.403Z,957
2016-08-09T12:29:53.430Z,957.02
2016-08-09T12:30:53.477Z,956.96
2016-08-09T12:31:53.483Z,957.02
2016-08-09T12:32:53.512Z,956.97
2016-08-09T12:33:53.539Z,956.99
2016-08-09T12:34:53.563Z,957.02
2016-08-09T12:35:53.592Z,956.99
2016-08-09T12:36:53.618Z,956.98
2016-08-09T12:37:53.646Z,957.02
2016-08-09T12:38:53.672Z,957.01
2016-08-09T12:39:53.699Z,956.96
2016-08-09T12:40:53.729Z,957.02
2016-08-09T12:41:53.755Z,957.01
2016-08-09T12:42:53.782Z,957.01